Time;durP1;ratioP1;P1;durP2;ratioP2;P2;SDS_P1;SDS_P2;PMS_P1;PMS_P2;Temp;Humidity;BMP_temperature;BMP_pressure;BME280_temperature;BME280_humidity;BME280_pressure;Samples;Min_cycle;Max_cycle;Signal;HPM_P1;HPM_P2
2021/05/02 00:00:08;;;;;;;9.77;7.65;;;;;;;;;;5013940;28;20022;-76
2021/05/02 00:02:35;;;;;;;12.43;8.65;;;;;;;;;;5015880;28;20089;-76
2021/05/02 00:05:01;;;;;;;13.45;8.98;;;;;;;;;;5014379;28;20033;-76
2021/05/02 00:07:27;;;;;;;13.27;9.10;;;;;;;;;;5016404;28;20451;-77
2021/05/02 00:09:53;;;;;;;13.02;8.60;;;;;;;;;;5018515;28;20034;-76
2021/05/02 00:12:19;;;;;;;12.80;9.02;;;;;;;;;;5029597;28;20014;-77
2021/05/02 00:14:45;;;;;;;12.27;8.75;;;;;;;;;;5019975;28;20021;-77
2021/05/02 00:17:12;;;;;;;11.23;8.05;;;;;;;;;;5025031;28;20431;-77
2021/05/02 00:19:39;;;;;;;11.90;9.07;;;;;;;;;;5016153;28;20022;-77
2021/05/02 00:22:05;;;;;;;12.88;8.35;;;;;;;;;;5014998;28;20324;-76
2021/05/02 00:24:33;;;;;;;11.98;9.10;;;;;;;;;;5013433;28;20026;-77
2021/05/02 00:27:00;;;;;;;12.65;8.98;;;;;;;;;;5013867;28;20036;-77
2021/05/02 00:29:26;;;;;;;11.57;7.72;;;;;;;;;;5013556;28;20089;-77
2021/05/02 00:31:53;;;;;;;12.45;7.90;;;;;;;;;;5015214;28;20184;-77
2021/05/02 00:34:19;;;;;;;11.38;7.35;;;;;;;;;;5014527;28;20026;-77
2021/05/02 00:36:45;;;;;;;12.93;8.27;;;;;;;;;;5018345;28;20406;-77
2021/05/02 00:39:11;;;;;;;11.27;7.40;;;;;;;;;;5020819;28;20324;-77
2021/05/02 00:41:38;;;;;;;13.13;8.77;;;;;;;;;;5019254;28;20109;-76
2021/05/02 00:44:24;;;;;;;11.75;7.40;;;;;;;;;;5014506;28;20034;-77
2021/05/02 00:46:56;;;;;;;12.73;8.40;;;;;;;;;;5022471;28;20029;-77
2021/05/02 00:49:29;;;;;;;15.15;9.45;;;;;;;;;;5013559;28;20061;-76
2021/05/02 00:51:58;;;;;;;15.40;9.77;;;;;;;;;;5013201;28;20103;-77
2021/05/02 00:54:33;;;;;;;12.55;8.20;;;;;;;;;;5013863;28;20018;-78
2021/05/02 00:57:00;;;;;;;13.23;9.25;;;;;;;;;;5014306;28;20017;-78
2021/05/02 00:59:29;;;;;;;15.50;9.63;;;;;;;;;;5012905;28;20108;-77
2021/05/02 01:01:56;;;;;;;10.93;8.18;;;;;;;;;;5013971;28;20336;-77
2021/05/02 01:04:30;;;;;;;12.43;8.55;;;;;;;;;;5014001;28;20368;-77
2021/05/02 01:07:00;;;;;;;14.85;9.40;;;;;;;;;;5016617;28;20057;-77
2021/05/02 01:09:28;;;;;;;13.38;8.60;;;;;;;;;;5022437;28;20029;-78
2021/05/02 01:11:56;;;;;;;13.25;9.05;;;;;;;;;;5022584;28;20030;-78
2021/05/02 01:14:23;;;;;;;13.15;8.02;;;;;;;;;;5027665;28;20021;-77
2021/05/02 01:16:50;;;;;;;9.77;7.55;;;;;;;;;;5030517;28;20048;-78
2021/05/02 01:19:17;;;;;;;10.65;7.63;;;;;;;;;;5036300;28;20029;-77
2021/05/02 01:21:43;;;;;;;12.02;6.68;;;;;;;;;;5037109;28;20033;-78
2021/05/02 01:24:11;;;;;;;8.68;6.55;;;;;;;;;;5019380;28;20022;-78
2021/05/02 01:26:43;;;;;;;10.80;7.57;;;;;;;;;;5037639;28;20021;-77
2021/05/02 01:29:09;;;;;;;7.93;6.18;;;;;;;;;;5038035;28;20025;-78
2021/05/02 01:31:36;;;;;;;7.47;5.55;;;;;;;;;;5037681;28;20139;-77
2021/05/02 01:34:03;;;;;;;7.53;5.50;;;;;;;;;;5035652;28;20048;-77
2021/05/02 01:36:29;;;;;;;6.95;5.20;;;;;;;;;;5019933;28;20021;-76
2021/05/02 01:38:56;;;;;;;5.72;4.53;;;;;;;;;;5037694;28;20029;-77
2021/05/02 01:41:23;;;;;;;5.55;4.63;;;;;;;;;;5036666;28;20140;-77
2021/05/02 01:43:49;;;;;;;4.30;3.70;;;;;;;;;;5031463;28;20028;-77
2021/05/02 01:46:18;;;;;;;4.60;3.83;;;;;;;;;;5025658;28;20069;-78
2021/05/02 01:48:45;;;;;;;4.95;3.83;;;;;;;;;;5016951;28;20056;-77
2021/05/02 01:51:13;;;;;;;3.67;3.38;;;;;;;;;;5016317;28;20022;-77
2021/05/02 01:53:39;;;;;;;3.75;2.95;;;;;;;;;;5016389;28;20026;-77
2021/05/02 01:56:06;;;;;;;2.60;2.40;;;;;;;;;;5014843;28;20054;-77
2021/05/02 01:58:33;;;;;;;2.35;2.15;;;;;;;;;;5015882;28;20074;-78
2021/05/02 02:01:01;;;;;;;2.33;2.13;;;;;;;;;;5016559;28;20025;-77
2021/05/02 02:03:27;;;;;;;2.50;2.25;;;;;;;;;;5016646;28;20098;-77
2021/05/02 02:05:53;;;;;;;2.67;2.30;;;;;;;;;;5019330;28;20064;-77
2021/05/02 02:08:20;;;;;;;2.42;2.22;;;;;;;;;;5016182;28;20030;-77
2021/05/02 02:10:47;;;;;;;2.38;2.17;;;;;;;;;;5015213;28;20018;-77
2021/05/02 02:13:15;;;;;;;2.20;1.83;;;;;;;;;;5016202;28;20085;-76
2021/05/02 02:15:41;;;;;;;1.75;1.65;;;;;;;;;;5009309;28;20359;-79
2021/05/02 02:18:08;;;;;;;1.92;1.65;;;;;;;;;;5018749;28;20078;-77
2021/05/02 02:20:42;;;;;;;3.22;2.22;;;;;;;;;;5016725;28;20018;-77
2021/05/02 02:23:13;;;;;;;2.45;2.05;;;;;;;;;;5016400;28;20045;-77
2021/05/02 02:25:42;;;;;;;2.03;1.83;;;;;;;;;;5014775;28;20030;-78
2021/05/02 02:28:11;;;;;;;1.58;1.48;;;;;;;;;;5026635;28;20038;-75
2021/05/02 02:30:38;;;;;;;1.60;1.42;;;;;;;;;;5031074;28;20073;-76
2021/05/02 02:33:07;;;;;;;1.45;1.35;;;;;;;;;;5015568;28;20029;-76
2021/05/02 02:35:35;;;;;;;1.65;1.38;;;;;;;;;;5016628;28;20025;-78
2021/05/02 02:38:05;;;;;;;3.17;2.22;;;;;;;;;;5016622;28;20097;-76
2021/05/02 02:40:35;;;;;;;1.70;1.60;;;;;;;;;;5023760;28;20032;-76
2021/05/02 02:43:03;;;;;;;1.40;1.30;;;;;;;;;;5030610;28;20033;-77
2021/05/02 02:45:33;;;;;;;2.13;1.17;;;;;;;;;;5036620;28;20032;-75
2021/05/02 02:47:59;;;;;;;1.30;1.20;;;;;;;;;;5033395;28;20093;-75
2021/05/02 02:50:28;;;;;;;0.93;0.90;;;;;;;;;;5025859;28;20374;-77
2021/05/02 02:52:56;;;;;;;1.27;1.08;;;;;;;;;;5025254;28;20108;-78
2021/05/02 02:55:23;;;;;;;1.15;1.15;;;;;;;;;;5027256;28;20133;-77
2021/05/02 02:57:54;;;;;;;1.58;1.42;;;;;;;;;;5031887;28;20036;-76
2021/05/02 03:00:21;;;;;;;1.30;1.20;;;;;;;;;;5024154;28;20026;-77
2021/05/02 03:02:51;;;;;;;1.10;0.98;;;;;;;;;;5022569;28;20409;-76
2021/05/02 03:05:19;;;;;;;1.15;0.80;;;;;;;;;;5021711;28;20037;-78
2021/05/02 03:07:48;;;;;;;3.13;1.25;;;;;;;;;;5028468;28;20034;-75
2021/05/02 03:10:15;;;;;;;1.05;0.93;;;;;;;;;;5029331;28;20032;-77
2021/05/02 03:12:42;;;;;;;1.00;0.95;;;;;;;;;;5017366;28;20550;-77
2021/05/02 03:15:09;;;;;;;0.90;0.70;;;;;;;;;;5017222;28;20030;-77
2021/05/02 03:17:36;;;;;;;1.20;0.90;;;;;;;;;;5032662;28;20091;-77
2021/05/02 03:20:11;;;;;;;1.45;0.98;;;;;;;;;;5039131;28;20028;-77
2021/05/02 03:22:37;;;;;;;0.60;0.60;;;;;;;;;;5040181;28;20104;-77
2021/05/02 03:25:04;;;;;;;1.02;0.93;;;;;;;;;;5038930;28;20021;-77
2021/05/02 03:27:51;;;;;;;0.70;0.70;;;;;;;;;;5037863;28;20060;-79
2021/05/02 03:30:20;;;;;;;0.65;0.65;;;;;;;;;;5037417;28;20037;-78
2021/05/02 03:32:48;;;;;;;1.13;0.70;;;;;;;;;;5054017;22;20109;-76
2021/05/02 03:35:15;;;;;;;0.95;0.77;;;;;;;;;;4996711;28;20394;-75
2021/05/02 03:37:47;;;;;;;2.35;0.90;;;;;;;;;;5014266;28;20022;-76
2021/05/02 03:40:13;;;;;;;0.70;0.70;;;;;;;;;;5014357;28;20018;-75
2021/05/02 03:42:40;;;;;;;0.90;0.80;;;;;;;;;;4996365;28;20033;-76
2021/05/02 03:45:06;;;;;;;1.08;0.98;;;;;;;;;;5016709;28;20489;-76
2021/05/02 03:47:32;;;;;;;0.70;0.70;;;;;;;;;;5027924;28;20037;-76
2021/05/02 03:49:59;;;;;;;0.77;0.77;;;;;;;;;;5034105;28;20484;-76
2021/05/02 03:52:25;;;;;;;0.85;0.85;;;;;;;;;;5033231;28;20435;-75
2021/05/02 03:54:54;;;;;;;0.60;0.60;;;;;;;;;;5033604;28;20370;-75
2021/05/02 03:57:20;;;;;;;0.80;0.80;;;;;;;;;;5031777;28;20029;-76
2021/05/02 03:59:47;;;;;;;1.17;1.05;;;;;;;;;;5033636;28;20029;-76
2021/05/02 04:02:16;;;;;;;1.60;1.13;;;;;;;;;;5013235;28;20159;-76
2021/05/02 04:04:42;;;;;;;1.45;1.35;;;;;;;;;;5025254;28;20032;-76
2021/05/02 04:07:11;;;;;;;1.25;1.10;;;;;;;;;;5031937;28;20052;-76
2021/05/02 04:09:38;;;;;;;1.88;1.60;;;;;;;;;;5033262;28;20037;-75
2021/05/02 04:12:05;;;;;;;1.70;1.55;;;;;;;;;;5031892;28;20029;-75
2021/05/02 04:14:31;;;;;;;2.50;2.22;;;;;;;;;;5018076;28;20029;-75
2021/05/02 04:17:04;;;;;;;2.75;2.08;;;;;;;;;;5024768;28;20063;-75
2021/05/02 04:19:31;;;;;;;2.53;2.30;;;;;;;;;;5033164;28;20390;-75
2021/05/02 04:21:57;;;;;;;2.50;2.30;;;;;;;;;;5033200;28;20032;-74
2021/05/02 04:24:23;;;;;;;3.78;2.40;;;;;;;;;;5032586;28;20049;-75
2021/05/02 04:26:53;;;;;;;2.63;2.15;;;;;;;;;;5033006;28;20037;-75
2021/05/02 04:29:20;;;;;;;4.13;2.95;;;;;;;;;;5031726;28;20033;-75
2021/05/02 04:31:46;;;;;;;3.90;2.83;;;;;;;;;;5032758;28;20022;-76
2021/05/02 04:34:12;;;;;;;6.28;4.07;;;;;;;;;;5032520;28;20053;-75
2021/05/02 04:36:38;;;;;;;4.07;3.20;;;;;;;;;;5032810;28;20434;-75
2021/05/02 04:39:04;;;;;;;6.85;4.55;;;;;;;;;;5024936;28;20084;-74
2021/05/02 04:41:30;;;;;;;7.10;5.35;;;;;;;;;;5024372;28;20045;-75
2021/05/02 04:43:56;;;;;;;6.07;4.47;;;;;;;;;;5026855;28;20030;-74
2021/05/02 04:46:23;;;;;;;5.90;4.57;;;;;;;;;;5024118;28;20013;-75
2021/05/02 04:48:49;;;;;;;7.97;5.38;;;;;;;;;;5031407;28;20025;-75
2021/05/02 04:51:15;;;;;;;6.28;4.72;;;;;;;;;;5032570;28;20028;-76
2021/05/02 04:53:42;;;;;;;7.15;5.18;;;;;;;;;;5030838;28;20029;-77
2021/05/02 04:56:09;;;;;;;5.97;4.75;;;;;;;;;;5032434;28;20474;-76
2021/05/02 04:58:35;;;;;;;6.32;4.30;;;;;;;;;;5032589;28;20025;-75
2021/05/02 05:01:01;;;;;;;6.63;4.90;;;;;;;;;;5030969;28;20022;-77
2021/05/02 05:03:28;;;;;;;5.65;4.28;;;;;;;;;;5032134;28;20034;-76
2021/05/02 05:05:54;;;;;;;4.85;3.95;;;;;;;;;;5032381;28;20036;-77
2021/05/02 05:08:20;;;;;;;4.47;3.58;;;;;;;;;;5032187;28;20034;-77
2021/05/02 05:10:46;;;;;;;6.05;4.50;;;;;;;;;;5031392;28;20063;-76
2021/05/02 05:13:12;;;;;;;5.82;4.28;;;;;;;;;;5021233;28;20030;-77
2021/05/02 05:15:38;;;;;;;5.85;4.38;;;;;;;;;;5020802;28;20058;-76
2021/05/02 05:18:04;;;;;;;4.65;3.75;;;;;;;;;;5032160;28;20029;-76
2021/05/02 05:20:30;;;;;;;5.43;3.92;;;;;;;;;;5034554;28;20152;-76
2021/05/02 05:22:56;;;;;;;3.53;3.20;;;;;;;;;;5033103;28;20052;-76
2021/05/02 05:25:22;;;;;;;3.67;3.03;;;;;;;;;;5034600;28;20029;-75
2021/05/02 05:27:49;;;;;;;3.88;3.30;;;;;;;;;;5034257;28;20493;-76
2021/05/02 05:30:15;;;;;;;5.70;3.92;;;;;;;;;;5034709;28;20021;-75
2021/05/02 05:32:41;;;;;;;4.35;3.58;;;;;;;;;;5034138;28;20079;-76
2021/05/02 05:35:08;;;;;;;5.38;4.20;;;;;;;;;;5032618;28;20025;-76
2021/05/02 05:37:34;;;;;;;6.35;4.55;;;;;;;;;;5030607;28;20531;-76
2021/05/02 05:40:00;;;;;;;5.97;4.68;;;;;;;;;;5033365;28;20017;-76
2021/05/02 05:42:26;;;;;;;5.85;4.60;;;;;;;;;;5032904;28;20025;-76
2021/05/02 05:44:52;;;;;;;6.10;4.53;;;;;;;;;;5027615;28;20417;-76
2021/05/02 05:47:18;;;;;;;4.25;3.83;;;;;;;;;;5024332;28;20025;-76
2021/05/02 05:49:44;;;;;;;5.75;4.63;;;;;;;;;;5031593;28;20457;-76
2021/05/02 05:52:12;;;;;;;6.03;4.53;;;;;;;;;;5031646;28;20029;-76
2021/05/02 05:54:39;;;;;;;4.18;3.65;;;;;;;;;;5027769;28;20064;-76
2021/05/02 05:57:05;;;;;;;6.05;4.45;;;;;;;;;;5032725;28;20100;-77
2021/05/02 05:59:31;;;;;;;5.65;5.13;;;;;;;;;;5022972;28;20067;-76
2021/05/02 06:01:57;;;;;;;6.53;4.32;;;;;;;;;;5012735;28;20032;-76
2021/05/02 06:04:23;;;;;;;5.13;4.63;;;;;;;;;;5011237;28;20026;-76
2021/05/02 06:06:50;;;;;;;5.57;4.80;;;;;;;;;;5011702;28;20536;-77
2021/05/02 06:09:16;;;;;;;5.97;5.15;;;;;;;;;;5011482;28;20026;-76
2021/05/02 06:11:42;;;;;;;7.13;5.70;;;;;;;;;;5021256;28;20021;-76
2021/05/02 06:14:09;;;;;;;7.05;5.10;;;;;;;;;;5016028;28;20077;-76
2021/05/02 06:16:35;;;;;;;7.03;5.43;;;;;;;;;;5023141;28;20049;-76
2021/05/02 06:19:01;;;;;;;4.95;4.43;;;;;;;;;;5033072;28;20075;-76
2021/05/02 06:21:27;;;;;;;5.43;4.55;;;;;;;;;;5034101;28;20055;-76
2021/05/02 06:23:55;;;;;;;5.75;4.60;;;;;;;;;;5036216;28;20018;-76
2021/05/02 06:26:21;;;;;;;6.13;5.22;;;;;;;;;;5035956;28;20056;-75
2021/05/02 06:28:51;;;;;;;6.78;5.13;;;;;;;;;;5036162;28;20036;-75
2021/05/02 06:31:18;;;;;;;5.63;4.97;;;;;;;;;;5034791;28;20071;-75
2021/05/02 06:33:44;;;;;;;5.70;5.00;;;;;;;;;;5019419;28;20836;-79
2021/05/02 06:36:10;;;;;;;5.70;4.50;;;;;;;;;;5016550;28;20026;-76
2021/05/02 06:38:36;;;;;;;7.18;5.65;;;;;;;;;;5022269;28;20073;-79
2021/05/02 06:41:03;;;;;;;8.30;6.22;;;;;;;;;;5011942;28;20022;-76
2021/05/02 06:43:29;;;;;;;6.32;5.60;;;;;;;;;;4997702;28;20026;-76
2021/05/02 06:45:55;;;;;;;6.55;5.55;;;;;;;;;;5015204;28;20367;-77
2021/05/02 06:48:21;;;;;;;7.55;6.07;;;;;;;;;;5035828;28;20022;-77
2021/05/02 06:50:47;;;;;;;6.55;5.68;;;;;;;;;;5034405;28;20029;-77
2021/05/02 06:53:14;;;;;;;7.80;6.10;;;;;;;;;;5035351;28;20026;-77
2021/05/02 06:55:40;;;;;;;11.68;7.97;;;;;;;;;;5016752;28;20041;-77
2021/05/02 06:58:06;;;;;;;9.73;7.50;;;;;;;;;;4998857;28;20022;-77
2021/05/02 07:00:32;;;;;;;10.25;7.32;;;;;;;;;;4996653;28;20022;-77
2021/05/02 07:02:58;;;;;;;9.90;7.50;;;;;;;;;;4996551;28;20035;-77
2021/05/02 07:05:24;;;;;;;12.40;8.38;;;;;;;;;;5002681;28;20033;-76
2021/05/02 07:07:52;;;;;;;11.18;8.18;;;;;;;;;;5015890;28;20030;-77
2021/05/02 07:10:19;;;;;;;11.68;9.02;;;;;;;;;;5015957;28;20108;-77
2021/05/02 07:12:45;;;;;;;12.48;9.05;;;;;;;;;;5015491;28;20029;-77
2021/05/02 07:15:11;;;;;;;12.30;9.65;;;;;;;;;;5023496;28;20100;-77
2021/05/02 07:17:37;;;;;;;15.02;11.25;;;;;;;;;;5028198;28;20489;-77
2021/05/02 07:20:04;;;;;;;13.13;10.30;;;;;;;;;;5035351;28;20032;-77
2021/05/02 07:22:33;;;;;;;13.40;10.32;;;;;;;;;;5034989;28;20119;-76
2021/05/02 07:24:59;;;;;;;12.52;9.93;;;;;;;;;;5035025;28;20402;-77
2021/05/02 07:27:25;;;;;;;13.57;10.43;;;;;;;;;;5018728;28;20034;-77
2021/05/02 07:29:51;;;;;;;15.63;10.80;;;;;;;;;;5015672;28;20030;-77
2021/05/02 07:32:17;;;;;;;15.25;10.57;;;;;;;;;;5014077;28;20403;-77
2021/05/02 07:34:43;;;;;;;13.30;10.13;;;;;;;;;;5008735;28;20026;-77
2021/05/02 07:37:10;;;;;;;11.95;9.60;;;;;;;;;;4995862;28;20049;-77
2021/05/02 07:39:36;;;;;;;12.73;10.20;;;;;;;;;;4995518;28;20026;-77
2021/05/02 07:42:02;;;;;;;13.23;10.20;;;;;;;;;;4994444;28;20033;-77
2021/05/02 07:44:28;;;;;;;11.25;8.82;;;;;;;;;;5007999;28;20028;-77
2021/05/02 07:46:54;;;;;;;11.80;9.57;;;;;;;;;;5024117;28;20064;-77
2021/05/02 07:49:20;;;;;;;10.90;9.63;;;;;;;;;;5016923;28;20029;-77
2021/05/02 07:51:46;;;;;;;12.00;10.20;;;;;;;;;;5016897;28;20073;-77
2021/05/02 07:54:12;;;;;;;15.00;11.95;;;;;;;;;;5003703;28;20054;-76
2021/05/02 07:56:38;;;;;;;15.00;12.23;;;;;;;;;;4997150;28;20081;-77
2021/05/02 07:59:05;;;;;;;15.57;12.23;;;;;;;;;;4995305;28;20029;-76
2021/05/02 08:01:31;;;;;;;17.23;12.75;;;;;;;;;;4995678;28;20093;-77
2021/05/02 08:03:57;;;;;;;15.95;12.43;;;;;;;;;;5002335;28;20129;-77
2021/05/02 08:06:23;;;;;;;16.05;12.90;;;;;;;;;;5015070;28;20034;-78
2021/05/02 08:08:49;;;;;;;17.27;13.27;;;;;;;;;;5014560;28;20037;-77
2021/05/02 08:11:15;;;;;;;13.82;11.45;;;;;;;;;;5015131;28;20101;-78
2021/05/02 08:13:41;;;;;;;14.98;11.43;;;;;;;;;;5011871;28;20029;-78
2021/05/02 08:16:08;;;;;;;17.58;13.10;;;;;;;;;;5018085;28;20097;-78
2021/05/02 08:18:34;;;;;;;18.10;14.52;;;;;;;;;;5034621;28;20025;-78
2021/05/02 08:21:02;;;;;;;18.55;13.77;;;;;;;;;;5033438;28;20026;-78
2021/05/02 08:23:28;;;;;;;17.10;13.68;;;;;;;;;;5035470;28;20018;-77
2021/05/02 08:25:54;;;;;;;19.23;14.63;;;;;;;;;;5012675;28;20030;-78
2021/05/02 08:28:20;;;;;;;18.65;13.88;;;;;;;;;;5015380;28;20037;-77
2021/05/02 08:30:46;;;;;;;17.85;14.73;;;;;;;;;;5014032;28;20394;-77
2021/05/02 08:33:12;;;;;;;19.42;14.98;;;;;;;;;;5014200;28;20045;-76
2021/05/02 08:35:38;;;;;;;19.75;16.38;;;;;;;;;;5016653;28;20096;-77
2021/05/02 08:38:05;;;;;;;18.77;15.38;;;;;;;;;;5007808;28;20028;-77
2021/05/02 08:40:31;;;;;;;17.85;13.60;;;;;;;;;;5006293;28;20045;-77
2021/05/02 08:43:03;;;;;;;13.32;11.63;;;;;;;;;;5004478;28;20026;-77
2021/05/02 08:45:30;;;;;;;13.80;11.13;;;;;;;;;;5008970;28;20068;-77
2021/05/02 08:47:56;;;;;;;12.13;9.75;;;;;;;;;;5007302;28;20077;-77
2021/05/02 08:50:22;;;;;;;12.38;9.73;;;;;;;;;;5005766;28;20434;-76
2021/05/02 08:52:49;;;;;;;12.52;10.18;;;;;;;;;;5003000;28;20029;-78
2021/05/02 08:55:15;;;;;;;11.60;10.02;;;;;;;;;;5010741;28;20083;-77
2021/05/02 08:57:41;;;;;;;13.10;10.02;;;;;;;;;;5005865;28;20479;-78
2021/05/02 09:00:08;;;;;;;13.63;10.20;;;;;;;;;;5007202;28;20538;-77
2021/05/02 09:02:35;;;;;;;13.20;11.80;;;;;;;;;;5003702;28;20050;-77
2021/05/02 09:05:03;;;;;;;13.77;12.20;;;;;;;;;;5002513;28;20030;-77
2021/05/02 09:07:46;;;;;;;15.52;12.02;;;;;;;;;;5008222;28;20022;-77
2021/05/02 09:10:12;;;;;;;14.13;12.30;;;;;;;;;;5004137;28;20026;-78
2021/05/02 09:12:39;;;;;;;14.63;12.20;;;;;;;;;;5013844;28;20371;-78
2021/05/02 09:15:09;;;;;;;18.05;13.77;;;;;;;;;;5017821;28;20022;-78
2021/05/02 09:20:42;;;;;;;15.82;13.40;;;;;;;;;;5013075;28;20041;-78
2021/05/02 09:23:08;;;;;;;15.65;13.95;;;;;;;;;;5006266;28;20030;-77
2021/05/02 09:25:46;;;;;;;16.35;12.98;;;;;;;;;;4994729;28;20160;-77
2021/05/02 09:28:12;;;;;;;14.43;12.98;;;;;;;;;;5009836;28;20028;-77
2021/05/02 09:30:45;;;;;;;15.25;13.57;;;;;;;;;;5010602;28;20030;-77
2021/05/02 09:33:24;;;;;;;15.30;13.70;;;;;;;;;;5058648;22;20037;-78
2021/05/02 09:35:51;;;;;;;17.13;13.70;;;;;;;;;;5076806;28;20040;-79
2021/05/02 09:38:18;;;;;;;16.45;14.20;;;;;;;;;;5055517;28;20048;-81
2021/05/02 09:40:51;;;;;;;14.52;12.38;;;;;;;;;;5035662;28;20040;-78
2021/05/02 09:43:37;;;;;;;13.70;12.05;;;;;;;;;;5066890;28;20039;-79
2021/05/02 09:46:07;;;;;;;12.60;11.30;;;;;;;;;;5067165;28;20055;-81
2021/05/02 09:48:36;;;;;;;15.73;12.68;;;;;;;;;;5079777;28;20016;-81
2021/05/02 09:51:12;;;;;;;13.00;11.70;;;;;;;;;;5064799;28;20389;-81
2021/05/02 09:53:38;;;;;;;17.55;12.60;;;;;;;;;;5057547;28;20055;-81
2021/05/02 09:56:14;;;;;;;14.32;12.82;;;;;;;;;;5057022;28;20025;-81
2021/05/02 09:58:40;;;;;;;17.00;13.32;;;;;;;;;;5060181;28;20032;-81
2021/05/02 10:01:07;;;;;;;13.27;11.88;;;;;;;;;;5060029;28;20515;-83
2021/05/02 10:03:35;;;;;;;13.38;11.88;;;;;;;;;;5059379;28;20078;-81
2021/05/02 10:06:04;;;;;;;12.70;11.30;;;;;;;;;;5059951;28;20033;-80
2021/05/02 10:08:30;;;;;;;11.18;10.07;;;;;;;;;;5062703;28;20082;-79
2021/05/02 10:10:57;;;;;;;13.93;10.55;;;;;;;;;;5064599;28;20362;-79
2021/05/02 10:13:24;;;;;;;13.50;10.85;;;;;;;;;;5060087;28;20440;-80
2021/05/02 10:15:50;;;;;;;13.38;10.88;;;;;;;;;;5075457;28;20046;-82
2021/05/02 10:18:16;;;;;;;11.80;10.60;;;;;;;;;;5071115;28;20029;-78
2021/05/02 10:20:47;;;;;;;12.27;10.98;;;;;;;;;;5074719;28;20052;-77
2021/05/02 10:23:14;;;;;;;12.73;11.43;;;;;;;;;;5073110;28;20044;-77
2021/05/02 10:25:41;;;;;;;13.15;11.52;;;;;;;;;;5074715;28;20050;-77
2021/05/02 10:28:07;;;;;;;11.75;10.38;;;;;;;;;;5075166;28;20037;-78
2021/05/02 10:30:37;;;;;;;10.65;9.55;;;;;;;;;;5073102;28;20264;-78
2021/05/02 10:33:11;;;;;;;11.13;9.25;;;;;;;;;;5070599;28;20028;-79
2021/05/02 10:35:52;;;;;;;10.15;9.05;;;;;;;;;;5068783;28;20052;-78
2021/05/02 10:38:22;;;;;;;10.27;9.03;;;;;;;;;;5065202;28;20088;-80
2021/05/02 10:40:48;;;;;;;9.38;8.38;;;;;;;;;;5060867;28;20057;-80
2021/05/02 10:43:28;;;;;;;8.95;8.07;;;;;;;;;;5059635;28;20044;-80
2021/05/02 10:45:55;;;;;;;9.52;8.07;;;;;;;;;;5067239;28;20036;-79
2021/05/02 10:48:24;;;;;;;9.93;8.10;;;;;;;;;;5058762;28;20155;-79
2021/05/02 10:50:51;;;;;;;9.75;8.75;;;;;;;;;;5068190;28;20029;-78
2021/05/02 10:53:21;;;;;;;9.75;8.75;;;;;;;;;;5061671;28;20028;-80
2021/05/02 10:55:49;;;;;;;10.27;9.15;;;;;;;;;;5058652;28;20017;-81
2021/05/02 10:58:25;;;;;;;9.70;8.75;;;;;;;;;;5055569;28;20449;-80
2021/05/02 11:00:52;;;;;;;9.98;8.98;;;;;;;;;;5055360;28;20495;-80
2021/05/02 11:03:39;;;;;;;10.77;9.68;;;;;;;;;;5056240;28;20017;-79
2021/05/02 11:06:06;;;;;;;10.73;9.30;;;;;;;;;;5054040;28;20028;-80
2021/05/02 11:09:02;;;;;;;11.05;9.80;;;;;;;;;;5058684;28;20033;-79
2021/05/02 11:11:31;;;;;;;12.82;10.30;;;;;;;;;;5052711;28;20041;-80
2021/05/02 11:16:45;;;;;;;12.15;10.85;;;;;;;;;;5080210;28;20093;-76
2021/05/02 11:19:12;;;;;;;11.75;10.55;;;;;;;;;;5076697;28;20082;-77
2021/05/02 11:21:50;;;;;;;11.98;10.75;;;;;;;;;;5061600;28;20025;-79
2021/05/02 11:24:21;;;;;;;12.23;11.00;;;;;;;;;;5057568;28;20021;-79
2021/05/02 11:27:18;;;;;;;13.15;11.45;;;;;;;;;;5061376;28;20528;-76
2021/05/02 11:30:05;;;;;;;15.95;12.55;;;;;;;;;;5062033;28;20087;-77
2021/05/02 11:32:36;;;;;;;11.88;9.80;;;;;;;;;;5057749;28;20033;-77
2021/05/02 11:35:05;;;;;;;13.68;12.07;;;;;;;;;;5057873;28;20023;-77
2021/05/02 11:37:40;;;;;;;15.45;12.73;;;;;;;;;;5058465;28;20096;-79
2021/05/02 11:40:18;;;;;;;14.60;12.23;;;;;;;;;;5057494;28;20025;-77
2021/05/02 11:42:52;;;;;;;13.82;11.45;;;;;;;;;;5062809;28;20043;-79
2021/05/02 11:45:22;;;;;;;15.60;11.63;;;;;;;;;;5058810;28;20029;-78
2021/05/02 11:47:48;;;;;;;12.23;10.90;;;;;;;;;;5068922;28;20082;-78
2021/05/02 11:50:15;;;;;;;12.98;10.98;;;;;;;;;;5061426;28;20033;-78
2021/05/02 11:52:45;;;;;;;13.98;12.50;;;;;;;;;;5056011;28;20033;-78
2021/05/02 11:55:30;;;;;;;15.15;12.60;;;;;;;;;;5057360;28;20098;-78
2021/05/02 11:57:57;;;;;;;15.15;13.55;;;;;;;;;;5057391;28;20108;-80
2021/05/02 12:00:36;;;;;;;19.98;15.15;;;;;;;;;;5059945;28;20025;-79
2021/05/02 12:03:03;;;;;;;18.98;15.70;;;;;;;;;;5073540;28;20399;-79
2021/05/02 12:05:29;;;;;;;18.80;16.15;;;;;;;;;;5082357;28;20021;-80
2021/05/02 12:08:11;;;;;;;16.65;14.85;;;;;;;;;;5082899;28;20044;-80
2021/05/02 12:10:38;;;;;;;17.75;15.48;;;;;;;;;;5067342;28;20119;-78
2021/05/02 12:13:05;;;;;;;13.18;11.88;;;;;;;;;;5059834;28;20033;-80
2021/05/02 12:15:31;;;;;;;14.40;12.90;;;;;;;;;;5066617;28;20029;-80
2021/05/02 12:17:58;;;;;;;12.68;11.38;;;;;;;;;;5076819;28;20077;-80
2021/05/02 12:20:25;;;;;;;13.48;12.07;;;;;;;;;;5067538;28;20071;-79
2021/05/02 12:22:51;;;;;;;12.75;11.45;;;;;;;;;;5059497;28;20029;-80
2021/05/02 12:25:17;;;;;;;13.23;11.93;;;;;;;;;;5058785;28;20025;-80
2021/05/02 12:27:56;;;;;;;13.43;11.52;;;;;;;;;;5059576;28;20033;-79
2021/05/02 12:30:22;;;;;;;13.38;11.05;;;;;;;;;;5074879;28;20029;-77
2021/05/02 12:32:49;;;;;;;13.00;11.68;;;;;;;;;;5075333;28;20255;-80
2021/05/02 12:35:15;;;;;;;13.07;11.65;;;;;;;;;;5062433;28;20029;-79
2021/05/02 12:37:41;;;;;;;11.45;9.98;;;;;;;;;;5060564;28;20033;-79
2021/05/02 12:40:07;;;;;;;10.95;9.77;;;;;;;;;;5058852;28;20025;-80
2021/05/02 12:42:34;;;;;;;11.55;10.45;;;;;;;;;;5060655;28;20033;-80
2021/05/02 12:45:02;;;;;;;10.65;9.65;;;;;;;;;;5068941;28;20024;-79
2021/05/02 12:47:28;;;;;;;10.98;9.73;;;;;;;;;;5074008;28;20480;-78
2021/05/02 12:49:55;;;;;;;12.45;10.55;;;;;;;;;;5081162;28;20043;-79
2021/05/02 12:52:28;;;;;;;13.77;12.25;;;;;;;;;;5061730;28;20032;-78
2021/05/02 12:54:54;;;;;;;15.30;13.32;;;;;;;;;;5060637;28;20028;-80
2021/05/02 12:57:24;;;;;;;15.70;13.98;;;;;;;;;;5059622;28;20108;-78
2021/05/02 12:59:59;;;;;;;15.65;13.65;;;;;;;;;;5058336;28;20073;-77
2021/05/02 13:02:30;;;;;;;15.43;13.38;;;;;;;;;;5055970;28;20043;-77
2021/05/02 13:05:11;;;;;;;17.40;14.10;;;;;;;;;;5057354;28;20405;-77
2021/05/02 13:07:45;;;;;;;16.45;14.32;;;;;;;;;;5058419;28;20028;-76
2021/05/02 13:10:23;;;;;;;14.07;12.57;;;;;;;;;;5057732;28;20021;-78
2021/05/02 13:12:52;;;;;;;15.23;13.30;;;;;;;;;;5058648;28;20508;-75
2021/05/02 13:15:20;;;;;;;11.95;10.70;;;;;;;;;;5065922;28;20072;-77
2021/05/02 13:18:03;;;;;;;16.33;14.07;;;;;;;;;;5074731;28;20027;-78
2021/05/02 13:20:48;;;;;;;16.75;15.02;;;;;;;;;;5060803;28;20021;-78
2021/05/02 13:23:30;;;;;;;18.17;14.77;;;;;;;;;;5056266;28;20036;-77
2021/05/02 13:26:11;;;;;;;14.93;13.38;;;;;;;;;;5059586;28;20104;-77
2021/05/02 13:28:40;;;;;;;12.13;10.82;;;;;;;;;;5057573;28;20033;-77
2021/05/02 13:31:07;;;;;;;15.43;12.73;;;;;;;;;;5055056;28;20029;-80
2021/05/02 13:33:33;;;;;;;14.30;12.80;;;;;;;;;;5056555;28;20028;-78
2021/05/02 13:35:59;;;;;;;14.95;13.27;;;;;;;;;;5056871;28;20017;-78
2021/05/02 13:38:26;;;;;;;16.30;14.40;;;;;;;;;;5054874;28;20036;-77
2021/05/02 13:40:52;;;;;;;14.90;12.13;;;;;;;;;;5055226;28;20025;-78
2021/05/02 13:43:18;;;;;;;13.75;12.35;;;;;;;;;;5057681;28;20031;-76
2021/05/02 13:45:44;;;;;;;11.70;10.50;;;;;;;;;;5069530;28;20044;-76
2021/05/02 13:48:14;;;;;;;9.75;8.43;;;;;;;;;;5080235;28;20539;-76
2021/05/02 13:50:41;;;;;;;18.25;14.32;;;;;;;;;;5064344;28;20513;-76
2021/05/02 13:53:07;;;;;;;15.77;13.90;;;;;;;;;;5055818;28;20089;-78
2021/05/02 13:55:33;;;;;;;11.43;10.32;;;;;;;;;;5059680;28;20092;-78
2021/05/02 13:57:59;;;;;;;15.80;13.57;;;;;;;;;;5059216;28;20020;-79
2021/05/02 14:00:26;;;;;;;11.07;9.98;;;;;;;;;;5058164;28;20095;-79
2021/05/02 14:02:52;;;;;;;16.88;13.27;;;;;;;;;;5057631;28;20397;-79
2021/05/02 14:05:18;;;;;;;11.27;10.10;;;;;;;;;;5059584;28;20029;-78
2021/05/02 14:07:45;;;;;;;15.10;12.68;;;;;;;;;;5058442;28;20086;-79
2021/05/02 14:10:11;;;;;;;12.10;10.88;;;;;;;;;;5057541;28;20245;-77
2021/05/02 14:12:37;;;;;;;14.52;12.68;;;;;;;;;;5062617;28;20004;-76
2021/05/02 14:15:04;;;;;;;13.20;10.05;;;;;;;;;;5083524;28;20064;-75
2021/05/02 14:17:31;;;;;;;10.07;8.32;;;;;;;;;;5076075;28;20021;-76
2021/05/02 14:19:57;;;;;;;16.67;13.60;;;;;;;;;;5049575;28;20144;-77
2021/05/02 14:22:23;;;;;;;12.95;11.65;;;;;;;;;;5054558;28;20028;-77
2021/05/02 14:24:50;;;;;;;12.80;11.48;;;;;;;;;;5055462;28;20044;-77
2021/05/02 14:27:16;;;;;;;12.40;11.05;;;;;;;;;;5057167;28;20031;-79
2021/05/02 14:29:43;;;;;;;12.90;11.60;;;;;;;;;;5063188;28;20053;-80
2021/05/02 14:32:09;;;;;;;11.85;10.65;;;;;;;;;;5061321;28;20029;-80
2021/05/02 14:34:35;;;;;;;11.38;9.73;;;;;;;;;;5058979;28;20071;-78
2021/05/02 14:37:02;;;;;;;12.38;10.57;;;;;;;;;;5058463;28;20063;-78
2021/05/02 14:39:31;;;;;;;12.10;10.65;;;;;;;;;;5056109;28;20608;-79
2021/05/02 14:42:01;;;;;;;11.10;9.25;;;;;;;;;;5054062;28;20129;-79